createdAt,value
2018-06-27T00:00:07.198Z,13.30
2018-06-27T00:00:40.228Z,13.40
2018-06-27T00:01:13.278Z,13.30
2018-06-27T00:01:46.308Z,13.30
2018-06-27T00:02:19.340Z,13.30
2018-06-27T00:02:52.376Z,13.30
2018-06-27T00:03:25.707Z,13.30
2018-06-27T00:03:58.735Z,13.40
2018-06-27T00:04:31.803Z,13.30
2018-06-27T00:05:05.550Z,13.30
2018-06-27T00:05:38.612Z,13.40
2018-06-27T00:06:12.204Z,13.30
2018-06-27T00:06:45.272Z,13.30
2018-06-27T00:07:18.381Z,13.30
2018-06-27T00:07:51.388Z,13.30
2018-06-27T00:08:25.727Z,13.30
2018-06-27T00:08:58.754Z,13.30
2018-06-27T00:09:32.638Z,13.20
2018-06-27T00:10:05.858Z,13.30
2018-06-27T00:10:39.629Z,13.30
2018-06-27T00:11:12.691Z,13.40
2018-06-27T00:11:45.738Z,13.30
2018-06-27T00:12:18.793Z,13.20
2018-06-27T00:12:51.835Z,13.20
2018-06-27T00:13:24.902Z,13.20
2018-06-27T00:13:57.962Z,13.20
2018-06-27T00:14:31.040Z,13.20
2018-06-27T00:15:04.847Z,13.20
2018-06-27T00:15:38.765Z,13.30
2018-06-27T00:16:12.012Z,13.30
2018-06-27T00:16:45.015Z,13.20
2018-06-27T00:17:18.164Z,13.20
2018-06-27T00:17:51.546Z,13.20
2018-06-27T00:18:25.278Z,13.20
2018-06-27T00:18:58.313Z,13.20
2018-06-27T00:19:31.348Z,13.20
2018-06-27T00:20:04.521Z,13.20
2018-06-27T00:20:37.589Z,13.20
2018-06-27T00:21:10.686Z,13.30
2018-06-27T00:21:43.797Z,13.20
2018-06-27T00:22:16.984Z,13.20
2018-06-27T00:22:50.034Z,13.20
2018-06-27T00:23:23.052Z,13.10
2018-06-27T00:23:56.086Z,13.20
2018-06-27T00:24:29.756Z,13.10
2018-06-27T00:25:05.414Z,13.20
2018-06-27T00:25:39.427Z,13.20
2018-06-27T00:26:12.486Z,13.20
2018-06-27T00:26:45.526Z,13.20
2018-06-27T00:27:18.561Z,13.10
2018-06-27T00:27:51.628Z,13.10
2018-06-27T00:28:25.452Z,13.20
2018-06-27T00:28:58.678Z,13.10
2018-06-27T00:29:31.693Z,13.10
2018-06-27T00:30:04.788Z,13.20
2018-06-27T00:30:37.807Z,13.20
2018-06-27T00:31:10.842Z,13.10
2018-06-27T00:31:46.104Z,13.10
2018-06-27T00:32:19.192Z,13.10
2018-06-27T00:32:52.181Z,13.10
2018-06-27T00:33:25.410Z,13.20
2018-06-27T00:33:59.460Z,13.20
2018-06-27T00:34:32.488Z,13.10
2018-06-27T00:35:05.552Z,13.20
2018-06-27T00:35:39.355Z,13.20
2018-06-27T00:36:12.354Z,13.20
2018-06-27T00:36:45.441Z,13.20
2018-06-27T00:37:18.533Z,13.20
2018-06-27T00:37:52.472Z,13.20
2018-06-27T00:38:25.756Z,13.20
2018-06-27T00:38:58.779Z,13.20
2018-06-27T00:39:32.612Z,13.20
2018-06-27T00:40:05.671Z,13.20
2018-06-27T00:40:38.698Z,13.20
2018-06-27T00:41:12.181Z,13.20
2018-06-27T00:41:48.297Z,13.20
2018-06-27T00:42:22.123Z,13.20
2018-06-27T00:42:55.158Z,13.20
2018-06-27T00:43:28.256Z,13.30
2018-06-27T00:44:01.958Z,13.30
2018-06-27T00:44:35.540Z,13.20
2018-06-27T00:45:09.224Z,13.20
2018-06-27T00:45:42.284Z,13.20
2018-06-27T00:46:15.330Z,13.20
2018-06-27T00:46:48.354Z,13.20
2018-06-27T00:47:22.210Z,13.20
2018-06-27T00:47:55.240Z,13.20
2018-06-27T00:48:29.240Z,13.10
2018-06-27T00:49:02.295Z,13.30
2018-06-27T00:49:35.347Z,13.20
2018-06-27T00:50:08.368Z,13.20
2018-06-27T00:50:41.455Z,13.20
2018-06-27T00:51:14.516Z,13.20
2018-06-27T00:51:48.148Z,13.20
2018-06-27T00:52:21.262Z,13.20
2018-06-27T00:52:54.914Z,13.10
2018-06-27T00:53:33.574Z,13.10
2018-06-27T00:54:07.701Z,13.10
2018-06-27T00:54:40.712Z,13.10
2018-06-27T00:55:13.776Z,13.00
2018-06-27T00:55:47.824Z,13.00
2018-06-27T00:56:21.658Z,13.10
2018-06-27T00:56:54.720Z,13.10
2018-06-27T00:57:28.264Z,13.10
2018-06-27T00:58:01.284Z,13.10
2018-06-27T00:58:34.351Z,13.10
2018-06-27T00:59:07.532Z,13.10
2018-06-27T00:59:40.574Z,13.10
2018-06-27T01:00:13.703Z,13.00
2018-06-27T01:00:46.797Z,13.10
2018-06-27T01:01:19.828Z,13.10
2018-06-27T01:01:52.924Z,13.10
2018-06-27T01:02:25.962Z,13.00
2018-06-27T01:02:58.957Z,13.10
2018-06-27T01:03:31.988Z,13.00
2018-06-27T01:04:05.067Z,13.10
2018-06-27T01:04:38.082Z,13.10
2018-06-27T01:05:11.164Z,13.00
2018-06-27T01:05:44.823Z,13.10
2018-06-27T01:06:17.884Z,13.00
2018-06-27T01:06:50.922Z,13.10
2018-06-27T01:07:23.948Z,13.00
2018-06-27T01:07:57.073Z,13.10
2018-06-27T01:08:31.470Z,13.00
2018-06-27T01:09:07.822Z,13.10
2018-06-27T01:09:40.882Z,13.00
2018-06-27T01:10:13.986Z,13.10
2018-06-27T01:10:47.026Z,13.00
2018-06-27T01:11:20.060Z,13.10
2018-06-27T01:11:53.676Z,13.10
2018-06-27T01:12:26.666Z,13.10
2018-06-27T01:13:00.719Z,13.10
2018-06-27T01:13:34.104Z,13.10
2018-06-27T01:14:08.228Z,13.10
2018-06-27T01:14:41.333Z,13.00
2018-06-27T01:15:14.403Z,13.10
2018-06-27T01:15:47.509Z,13.10
2018-06-27T01:16:20.691Z,13.20
2018-06-27T01:16:54.732Z,13.20
2018-06-27T01:17:27.830Z,13.10
2018-06-27T01:18:00.895Z,13.20
2018-06-27T01:18:34.536Z,13.20
2018-06-27T01:19:07.586Z,13.10
2018-06-27T01:19:40.629Z,13.10
2018-06-27T01:20:13.659Z,13.20
2018-06-27T01:20:46.742Z,13.20
2018-06-27T01:21:20.071Z,13.20
2018-06-27T01:21:53.060Z,13.10
2018-06-27T01:22:26.612Z,13.10
2018-06-27T01:22:59.658Z,13.10
2018-06-27T01:23:32.762Z,13.00
2018-06-27T01:24:05.954Z,13.10
2018-06-27T01:24:39.592Z,13.10
2018-06-27T01:25:12.654Z,13.10
2018-06-27T01:25:46.432Z,13.10
2018-06-27T01:26:19.523Z,13.10
2018-06-27T01:26:53.241Z,13.20
2018-06-27T01:27:26.340Z,13.10
2018-06-27T01:27:59.347Z,13.20
2018-06-27T01:28:32.594Z,13.00
2018-06-27T01:29:05.686Z,13.10
2018-06-27T01:29:38.865Z,13.00
2018-06-27T01:30:11.894Z,13.10
2018-06-27T01:30:44.955Z,13.10
2018-06-27T01:31:17.981Z,13.10
2018-06-27T01:31:51.004Z,13.10
2018-06-27T01:32:24.052Z,13.00
2018-06-27T01:32:57.585Z,13.00
2018-06-27T01:33:30.621Z,13.20
2018-06-27T01:34:03.681Z,13.00
2018-06-27T01:34:36.685Z,13.00
2018-06-27T01:35:09.746Z,13.10
2018-06-27T01:35:42.784Z,13.00
2018-06-27T01:36:15.827Z,13.10
2018-06-27T01:36:48.895Z,13.00
2018-06-27T01:37:21.950Z,13.10
2018-06-27T01:37:54.989Z,13.10
2018-06-27T01:38:28.922Z,13.10
2018-06-27T01:39:01.942Z,13.20
2018-06-27T01:39:34.970Z,13.20
2018-06-27T01:40:09.031Z,13.20
2018-06-27T01:40:42.050Z,13.20
2018-06-27T01:41:15.119Z,13.20
2018-06-27T01:41:48.120Z,13.10
2018-06-27T01:42:21.111Z,13.20
2018-06-27T01:42:54.646Z,13.20
2018-06-27T01:43:27.639Z,13.10
2018-06-27T01:44:00.700Z,13.20
2018-06-27T01:44:34.261Z,13.20
2018-06-27T01:45:07.348Z,13.20
2018-06-27T01:45:40.434Z,13.20
2018-06-27T01:46:14.474Z,13.20
2018-06-27T01:46:47.520Z,13.20
2018-06-27T01:47:20.532Z,13.20
2018-06-27T01:47:54.263Z,13.30
2018-06-27T01:48:27.262Z,13.30
2018-06-27T01:49:00.899Z,13.30
2018-06-27T01:49:33.920Z,13.30
2018-06-27T01:50:07.128Z,13.40
2018-06-27T01:50:40.136Z,13.40
2018-06-27T01:51:13.203Z,13.40
2018-06-27T01:51:46.206Z,13.40
2018-06-27T01:52:20.044Z,13.40
2018-06-27T01:52:53.109Z,13.40
2018-06-27T01:53:26.204Z,13.40
2018-06-27T01:53:59.257Z,13.40
2018-06-27T01:54:32.259Z,13.40
2018-06-27T01:55:05.337Z,13.50
2018-06-27T01:55:38.356Z,13.50
2018-06-27T01:56:12.384Z,13.50
2018-06-27T01:56:45.448Z,13.50
2018-06-27T01:57:18.579Z,13.50
2018-06-27T01:57:51.676Z,13.60
2018-06-27T01:58:24.780Z,13.70
2018-06-27T01:58:57.775Z,13.60
2018-06-27T01:59:31.417Z,13.60
2018-06-27T02:00:06.355Z,13.60
2018-06-27T02:00:39.412Z,13.70
2018-06-27T02:01:12.765Z,13.60
2018-06-27T02:01:45.852Z,13.70
2018-06-27T02:02:18.969Z,13.70
2018-06-27T02:02:51.995Z,13.70
2018-06-27T02:03:25.042Z,13.70
2018-06-27T02:03:58.623Z,13.70
2018-06-27T02:04:31.691Z,13.80
2018-06-27T02:05:05.061Z,13.90
2018-06-27T02:05:38.732Z,13.80
2018-06-27T02:06:12.468Z,13.80
2018-06-27T02:06:45.521Z,13.90
2018-06-27T02:07:18.550Z,13.90
2018-06-27T02:07:51.565Z,14.00
2018-06-27T02:08:24.599Z,14.00
2018-06-27T02:08:58.290Z,13.90
2018-06-27T02:09:31.347Z,14.00
2018-06-27T02:10:04.897Z,14.00
2018-06-27T02:10:37.923Z,14.00
2018-06-27T02:11:10.973Z,14.00
2018-06-27T02:11:45.153Z,14.10
2018-06-27T02:12:18.169Z,14.00
2018-06-27T02:12:52.227Z,14.00
2018-06-27T02:13:25.255Z,14.10
2018-06-27T02:13:58.937Z,14.10
2018-06-27T02:14:32.016Z,14.20
2018-06-27T02:15:05.615Z,14.10
2018-06-27T02:15:38.714Z,14.10
2018-06-27T02:16:11.738Z,14.10
2018-06-27T02:16:45.138Z,14.20
2018-06-27T02:17:19.313Z,14.10
2018-06-27T02:17:52.687Z,14.30
2018-06-27T02:18:25.726Z,14.20
2018-06-27T02:18:59.733Z,14.20
2018-06-27T02:19:32.761Z,14.10
2018-06-27T02:20:05.953Z,14.20
2018-06-27T02:20:38.978Z,14.20
2018-06-27T02:21:11.986Z,14.30
2018-06-27T02:21:45.026Z,14.30
2018-06-27T02:22:18.010Z,14.20
2018-06-27T02:22:51.086Z,14.40
2018-06-27T02:23:24.135Z,14.30
2018-06-27T02:23:57.152Z,14.30
2018-06-27T02:24:30.219Z,14.30
2018-06-27T02:25:03.262Z,14.40
2018-06-27T02:25:36.712Z,14.30
2018-06-27T02:26:09.739Z,14.30
2018-06-27T02:26:42.743Z,14.40
2018-06-27T02:27:15.803Z,14.30
2018-06-27T02:27:49.744Z,14.20
2018-06-27T02:28:23.410Z,14.30
2018-06-27T02:28:56.463Z,14.30
2018-06-27T02:29:29.559Z,14.30
2018-06-27T02:30:03.283Z,14.30
2018-06-27T02:30:36.364Z,14.30
2018-06-27T02:31:10.866Z,14.40
2018-06-27T02:31:43.872Z,14.40
2018-06-27T02:32:17.621Z,14.40
2018-06-27T02:32:50.685Z,14.30
2018-06-27T02:33:28.261Z,14.20
2018-06-27T02:34:01.891Z,14.30
2018-06-27T02:34:34.940Z,14.30
2018-06-27T02:35:08.093Z,14.30
2018-06-27T02:35:41.751Z,14.30
2018-06-27T02:36:15.101Z,14.30
2018-06-27T02:36:48.155Z,14.30
2018-06-27T02:37:21.184Z,14.30
2018-06-27T02:37:54.225Z,14.40
2018-06-27T02:38:28.228Z,14.40
2018-06-27T02:39:01.212Z,14.50
2018-06-27T02:39:34.246Z,14.40
2018-06-27T02:40:07.359Z,14.40
2018-06-27T02:40:40.351Z,14.40
2018-06-27T02:41:13.419Z,14.40
2018-06-27T02:41:47.431Z,14.50
2018-06-27T02:42:20.686Z,14.50
2018-06-27T02:42:53.872Z,14.40
2018-06-27T02:43:26.940Z,14.40
2018-06-27T02:43:59.922Z,14.50
2018-06-27T02:44:33.756Z,14.60
2018-06-27T02:45:07.834Z,14.40
2018-06-27T02:45:40.897Z,14.50
2018-06-27T02:46:13.960Z,14.50
2018-06-27T02:46:46.991Z,14.50
2018-06-27T02:47:20.016Z,14.40
2018-06-27T02:47:53.020Z,14.40
2018-06-27T02:48:26.583Z,14.50
2018-06-27T02:48:59.642Z,14.50
2018-06-27T02:49:32.693Z,14.40
2018-06-27T02:50:05.796Z,14.40
2018-06-27T02:50:38.808Z,14.60
2018-06-27T02:51:12.613Z,14.50
2018-06-27T02:51:45.956Z,14.50
2018-06-27T02:52:19.027Z,14.50
2018-06-27T02:52:52.699Z,14.50
2018-06-27T02:53:25.713Z,14.50
2018-06-27T02:53:58.730Z,14.50
2018-06-27T02:54:31.785Z,14.60
2018-06-27T02:55:05.024Z,14.60
2018-06-27T02:55:38.016Z,14.60
2018-06-27T02:56:11.033Z,14.60
2018-06-27T02:56:44.042Z,14.60
2018-06-27T02:57:17.046Z,14.60
2018-06-27T02:57:50.107Z,14.40
2018-06-27T02:58:23.183Z,14.40
2018-06-27T02:58:56.270Z,14.50
2018-06-27T02:59:29.308Z,14.60
2018-06-27T03:00:02.449Z,14.60
2018-06-27T03:00:35.708Z,14.50
2018-06-27T03:01:08.748Z,14.60
2018-06-27T03:01:41.852Z,14.50
2018-06-27T03:02:15.712Z,14.60
2018-06-27T03:02:48.722Z,14.50
2018-06-27T03:03:22.327Z,14.40
2018-06-27T03:03:55.496Z,14.40
2018-06-27T03:04:28.553Z,14.50
2018-06-27T03:05:01.732Z,14.50
2018-06-27T03:05:35.544Z,14.50
2018-06-27T03:06:09.323Z,14.50
2018-06-27T03:06:42.733Z,14.60
2018-06-27T03:07:15.904Z,14.60
2018-06-27T03:07:48.935Z,14.50
2018-06-27T03:08:22.750Z,14.60
2018-06-27T03:08:55.760Z,14.60
2018-06-27T03:09:28.842Z,14.70
2018-06-27T03:10:01.898Z,14.60
2018-06-27T03:10:35.036Z,14.60
2018-06-27T03:11:08.101Z,14.60
2018-06-27T03:11:41.193Z,14.70
2018-06-27T03:12:14.260Z,14.70
2018-06-27T03:12:47.284Z,14.70
2018-06-27T03:13:20.344Z,14.60
2018-06-27T03:13:53.378Z,14.60
2018-06-27T03:14:26.427Z,14.50
2018-06-27T03:14:59.406Z,14.70
2018-06-27T03:15:32.476Z,14.70
2018-06-27T03:16:05.537Z,14.70
2018-06-27T03:16:38.574Z,14.50
2018-06-27T03:17:11.633Z,14.60
2018-06-27T03:17:45.599Z,14.70
2018-06-27T03:18:18.654Z,14.70
2018-06-27T03:18:55.014Z,14.60
2018-06-27T03:19:28.034Z,14.70
2018-06-27T03:20:01.077Z,14.50
2018-06-27T03:20:34.132Z,14.60
2018-06-27T03:21:07.154Z,14.60
2018-06-27T03:21:40.246Z,14.70
2018-06-27T03:22:13.350Z,14.50
2018-06-27T03:22:46.394Z,14.60
2018-06-27T03:23:19.435Z,14.50
2018-06-27T03:23:53.020Z,14.50
2018-06-27T03:24:26.040Z,14.60
2018-06-27T03:24:59.201Z,14.50
2018-06-27T03:25:32.239Z,14.60
2018-06-27T03:26:05.374Z,14.50
2018-06-27T03:26:38.376Z,14.50
2018-06-27T03:27:11.411Z,14.40
2018-06-27T03:27:44.454Z,14.50
2018-06-27T03:28:17.498Z,14.50
2018-06-27T03:28:50.584Z,14.60
2018-06-27T03:29:23.601Z,14.60
2018-06-27T03:30:05.447Z,14.60
2018-06-27T03:30:38.471Z,14.70
2018-06-27T03:31:11.575Z,14.70
2018-06-27T03:31:44.612Z,14.70
2018-06-27T03:32:17.717Z,14.70
2018-06-27T03:32:50.729Z,14.70
2018-06-27T03:33:23.766Z,14.70
2018-06-27T03:33:56.795Z,14.70
2018-06-27T03:34:29.816Z,14.70
2018-06-27T03:35:02.937Z,14.70
2018-06-27T03:35:35.960Z,14.70
2018-06-27T03:36:09.002Z,14.70
2018-06-27T03:36:42.018Z,14.70
2018-06-27T03:37:15.050Z,14.70
2018-06-27T03:37:48.066Z,14.60
2018-06-27T03:38:21.075Z,14.80
2018-06-27T03:38:54.129Z,14.70
2018-06-27T03:39:27.150Z,14.70
2018-06-27T03:40:00.193Z,14.60
2018-06-27T03:40:33.222Z,14.60
2018-06-27T03:41:06.636Z,14.70
2018-06-27T03:41:39.645Z,14.70
2018-06-27T03:42:12.698Z,14.60
2018-06-27T03:42:45.720Z,14.50
2018-06-27T03:43:18.726Z,14.70
2018-06-27T03:43:51.705Z,14.70
2018-06-27T03:44:24.743Z,14.70
2018-06-27T03:44:57.785Z,14.70
2018-06-27T03:45:30.835Z,14.80
2018-06-27T03:46:03.970Z,14.70
2018-06-27T03:46:36.977Z,14.80
2018-06-27T03:47:10.002Z,14.70
2018-06-27T03:47:43.036Z,14.60
2018-06-27T03:48:16.064Z,14.60
2018-06-27T03:48:49.092Z,14.60
2018-06-27T03:49:22.118Z,14.50
2018-06-27T03:49:55.123Z,14.50
2018-06-27T03:50:28.138Z,14.60
2018-06-27T03:51:01.142Z,14.70
2018-06-27T03:51:34.169Z,14.80
2018-06-27T03:52:07.230Z,14.70
2018-06-27T03:52:45.316Z,14.80
2018-06-27T03:53:18.348Z,14.80
2018-06-27T03:53:58.225Z,14.80
2018-06-27T03:54:31.255Z,14.80
2018-06-27T03:55:04.563Z,14.90
2018-06-27T03:55:37.545Z,14.80
2018-06-27T03:56:11.849Z,14.90
2018-06-27T03:56:44.869Z,14.80
2018-06-27T03:57:17.942Z,14.90
2018-06-27T03:57:50.958Z,14.70
2018-06-27T03:58:24.006Z,14.90
2018-06-27T03:58:57.046Z,14.80
2018-06-27T03:59:30.064Z,14.70
2018-06-27T04:00:04.087Z,14.80
2018-06-27T04:00:37.137Z,14.90
2018-06-27T04:01:10.648Z,14.70
2018-06-27T04:01:43.673Z,14.70
2018-06-27T04:02:16.662Z,14.70
2018-06-27T04:02:50.307Z,14.80
2018-06-27T04:03:23.349Z,14.70
2018-06-27T04:03:56.616Z,14.70
2018-06-27T04:04:29.683Z,14.70
2018-06-27T04:05:02.746Z,14.60
2018-06-27T04:05:35.761Z,14.70
2018-06-27T04:06:09.852Z,14.70
2018-06-27T04:06:42.882Z,14.80
2018-06-27T04:07:16.460Z,14.70
2018-06-27T04:07:49.509Z,14.80
2018-06-27T04:08:22.566Z,14.80
2018-06-27T04:08:55.616Z,14.70
2018-06-27T04:09:28.648Z,14.80
2018-06-27T04:10:01.912Z,14.80
2018-06-27T04:10:34.998Z,14.80
2018-06-27T04:11:08.030Z,14.90
2018-06-27T04:11:41.647Z,14.90
2018-06-27T04:12:14.695Z,14.90
2018-06-27T04:12:47.867Z,14.90
2018-06-27T04:13:21.750Z,15.00
2018-06-27T04:13:54.762Z,15.00
2018-06-27T04:14:27.830Z,14.90
2018-06-27T04:15:00.860Z,15.00
2018-06-27T04:15:36.320Z,15.00
2018-06-27T04:16:09.510Z,15.00
2018-06-27T04:16:42.556Z,15.00
2018-06-27T04:17:15.607Z,14.90
2018-06-27T04:17:48.624Z,14.90
2018-06-27T04:18:21.657Z,15.00
2018-06-27T04:18:54.817Z,15.10
2018-06-27T04:19:27.852Z,15.10
2018-06-27T04:20:00.855Z,15.10
2018-06-27T04:20:33.888Z,15.10
2018-06-27T04:21:06.944Z,15.10
2018-06-27T04:21:39.966Z,15.10
2018-06-27T04:22:16.120Z,15.10
2018-06-27T04:22:49.144Z,15.00
2018-06-27T04:23:22.186Z,15.00
2018-06-27T04:23:55.216Z,15.10
2018-06-27T04:24:28.243Z,15.20
2018-06-27T04:25:01.407Z,15.20
2018-06-27T04:25:34.487Z,15.10
2018-06-27T04:26:07.490Z,15.00
2018-06-27T04:26:40.544Z,15.20
2018-06-27T04:27:13.568Z,15.10
2018-06-27T04:27:46.640Z,15.10
2018-06-27T04:28:20.222Z,15.10
2018-06-27T04:28:53.541Z,15.10
2018-06-27T04:29:26.563Z,15.20
2018-06-27T04:30:00.876Z,15.30
2018-06-27T04:30:34.043Z,15.30
2018-06-27T04:31:07.040Z,15.10
2018-06-27T04:31:40.062Z,15.10
2018-06-27T04:32:13.071Z,15.10
2018-06-27T04:32:46.110Z,15.10
2018-06-27T04:33:19.146Z,15.10
2018-06-27T04:33:52.168Z,15.20
2018-06-27T04:34:25.268Z,15.20
2018-06-27T04:34:59.405Z,15.20
2018-06-27T04:35:32.440Z,15.20
2018-06-27T04:36:05.493Z,15.10
2018-06-27T04:36:38.534Z,15.20
2018-06-27T04:37:11.568Z,15.20
2018-06-27T04:37:44.604Z,15.30
2018-06-27T04:38:18.078Z,15.30
2018-06-27T04:38:51.103Z,15.30
2018-06-27T04:39:24.196Z,15.30
2018-06-27T04:39:57.899Z,15.30
2018-06-27T04:40:30.926Z,15.40
2018-06-27T04:41:03.999Z,15.40
2018-06-27T04:41:37.352Z,15.40
2018-06-27T04:42:10.415Z,15.30
2018-06-27T04:42:43.420Z,15.40
2018-06-27T04:43:16.438Z,15.40
2018-06-27T04:43:49.477Z,15.40
2018-06-27T04:44:22.523Z,15.40
2018-06-27T04:44:55.609Z,15.50
2018-06-27T04:45:28.632Z,15.50
2018-06-27T04:46:01.728Z,15.50
2018-06-27T04:46:35.436Z,15.60
2018-06-27T04:47:08.470Z,15.70
2018-06-27T04:47:41.492Z,15.60
2018-06-27T04:48:14.514Z,15.60
2018-06-27T04:48:47.526Z,15.30
2018-06-27T04:49:20.547Z,15.30
2018-06-27T04:49:53.545Z,15.20
2018-06-27T04:50:26.546Z,15.30
2018-06-27T04:50:59.548Z,15.30
2018-06-27T04:51:33.107Z,15.40
2018-06-27T04:52:06.224Z,15.30
2018-06-27T04:52:39.224Z,15.30
2018-06-27T04:53:12.242Z,15.50
2018-06-27T04:53:45.295Z,15.60
2018-06-27T04:54:18.395Z,15.60
2018-06-27T04:54:51.448Z,15.50
2018-06-27T04:55:24.394Z,15.40
2018-06-27T04:55:57.374Z,15.40
2018-06-27T04:56:30.483Z,15.20
2018-06-27T04:57:03.792Z,15.20
2018-06-27T04:57:36.836Z,15.30
2018-06-27T04:58:09.863Z,15.30
2018-06-27T04:58:42.877Z,15.20
2018-06-27T04:59:15.867Z,15.30
2018-06-27T04:59:49.123Z,15.30
2018-06-27T05:00:22.135Z,15.30
2018-06-27T05:00:55.184Z,15.30
2018-06-27T05:01:28.237Z,15.40
2018-06-27T05:02:01.343Z,15.50
2018-06-27T05:02:34.376Z,15.50
2018-06-27T05:03:07.398Z,15.60
2018-06-27T05:03:40.417Z,15.60
2018-06-27T05:04:13.451Z,15.50
2018-06-27T05:04:47.289Z,15.60
2018-06-27T05:05:20.297Z,15.70
2018-06-27T05:05:53.315Z,15.40
2018-06-27T05:06:26.337Z,15.40
2018-06-27T05:06:59.345Z,15.40
2018-06-27T05:07:32.395Z,15.40
2018-06-27T05:08:05.413Z,15.20
2018-06-27T05:08:38.445Z,15.20
2018-06-27T05:09:11.449Z,15.30
2018-06-27T05:09:44.489Z,15.30
2018-06-27T05:10:17.725Z,15.30
2018-06-27T05:10:50.799Z,15.20
2018-06-27T05:11:23.820Z,15.40
2018-06-27T05:11:56.871Z,15.50
2018-06-27T05:12:29.914Z,15.60
2018-06-27T05:13:02.961Z,15.70
2018-06-27T05:13:35.981Z,15.70
2018-06-27T05:14:08.979Z,15.70
2018-06-27T05:14:41.954Z,15.60
2018-06-27T05:15:14.984Z,15.40
2018-06-27T05:15:48.000Z,15.50
2018-06-27T05:16:21.037Z,15.60
2018-06-27T05:16:54.064Z,15.60
2018-06-27T05:17:27.063Z,15.50
2018-06-27T05:18:00.104Z,15.50
2018-06-27T05:18:33.211Z,15.50
2018-06-27T05:19:06.239Z,15.50
2018-06-27T05:19:41.703Z,15.50
2018-06-27T05:20:14.707Z,15.50
2018-06-27T05:20:47.760Z,15.40
2018-06-27T05:21:20.863Z,15.40
2018-06-27T05:21:53.973Z,15.30
2018-06-27T05:22:26.953Z,15.30
2018-06-27T05:22:59.999Z,15.30
2018-06-27T05:23:33.106Z,15.30
2018-06-27T05:24:06.155Z,15.40
2018-06-27T05:24:39.183Z,15.50
2018-06-27T05:25:12.227Z,15.30
2018-06-27T05:25:45.251Z,15.50
2018-06-27T05:26:18.323Z,15.50
2018-06-27T05:26:51.363Z,15.70
2018-06-27T05:27:24.378Z,15.80
2018-06-27T05:27:57.376Z,15.90
2018-06-27T05:28:30.454Z,15.90
2018-06-27T05:29:03.569Z,16.00
2018-06-27T05:29:36.627Z,16.10
2018-06-27T05:30:09.716Z,16.00
2018-06-27T05:30:42.746Z,16.00
2018-06-27T05:31:15.804Z,16.00
2018-06-27T05:31:48.828Z,16.00
2018-06-27T05:32:21.869Z,16.10
2018-06-27T05:32:54.904Z,16.00
2018-06-27T05:33:27.957Z,16.00
2018-06-27T05:34:01.073Z,16.10
2018-06-27T05:34:34.039Z,16.20
2018-06-27T05:35:07.131Z,16.30
2018-06-27T05:35:40.603Z,16.30
2018-06-27T05:36:13.619Z,16.30
2018-06-27T05:36:46.634Z,16.50
2018-06-27T05:37:19.643Z,16.50
2018-06-27T05:37:52.691Z,16.50
2018-06-27T05:38:25.743Z,16.40
2018-06-27T05:38:58.795Z,16.60
2018-06-27T05:39:31.840Z,16.70
2018-06-27T05:40:05.047Z,16.80
2018-06-27T05:40:38.087Z,16.70
2018-06-27T05:41:11.136Z,16.80
2018-06-27T05:41:44.181Z,16.90
2018-06-27T05:42:17.247Z,16.90
2018-06-27T05:42:50.299Z,16.90
2018-06-27T05:43:23.339Z,16.90
2018-06-27T05:43:56.439Z,16.90
2018-06-27T05:44:29.492Z,16.90
2018-06-27T05:45:02.569Z,17.00
2018-06-27T05:45:35.625Z,16.90
2018-06-27T05:46:08.665Z,17.00
2018-06-27T05:46:41.737Z,17.00
2018-06-27T05:47:14.821Z,17.10
2018-06-27T05:47:47.811Z,17.20
2018-06-27T05:48:20.872Z,17.30
2018-06-27T05:48:54.410Z,17.30
2018-06-27T05:49:27.441Z,17.30
2018-06-27T05:50:00.509Z,17.20
2018-06-27T05:50:33.585Z,17.20
2018-06-27T05:51:06.644Z,17.20
2018-06-27T05:51:39.687Z,17.20
2018-06-27T05:52:12.709Z,17.30
2018-06-27T05:52:45.940Z,17.30
2018-06-27T05:53:18.999Z,17.10
2018-06-27T05:53:52.093Z,16.80
2018-06-27T05:54:25.269Z,16.80
2018-06-27T05:55:03.951Z,16.80
2018-06-27T05:55:36.979Z,16.90
2018-06-27T05:56:10.029Z,16.80
2018-06-27T05:56:43.083Z,16.80
2018-06-27T05:57:16.111Z,16.80
2018-06-27T05:57:49.165Z,16.90
2018-06-27T05:58:22.356Z,16.90
2018-06-27T05:58:55.295Z,17.00
2018-06-27T05:59:28.315Z,17.00
2018-06-27T06:00:01.343Z,17.20
2018-06-27T06:00:34.411Z,17.20
2018-06-27T06:01:07.433Z,17.20
2018-06-27T06:01:40.488Z,17.40
2018-06-27T06:02:13.503Z,17.50
2018-06-27T06:02:46.580Z,17.50
2018-06-27T06:03:19.644Z,17.60
2018-06-27T06:03:52.665Z,17.50
2018-06-27T06:04:25.810Z,17.60
2018-06-27T06:05:00.719Z,17.60
2018-06-27T06:05:33.735Z,17.60
2018-06-27T06:06:06.810Z,17.60
2018-06-27T06:06:39.840Z,17.80
2018-06-27T06:07:12.968Z,17.40
2018-06-27T06:07:50.997Z,17.30
2018-06-27T06:08:24.022Z,17.30
2018-06-27T06:08:57.032Z,17.40
2018-06-27T06:09:30.020Z,17.40
2018-06-27T06:10:03.616Z,17.60
2018-06-27T06:10:36.587Z,17.40
2018-06-27T06:11:09.741Z,17.60
2018-06-27T06:11:42.736Z,17.70
2018-06-27T06:12:15.815Z,17.70
2018-06-27T06:12:48.830Z,17.80
2018-06-27T06:13:21.913Z,17.80
2018-06-27T06:13:55.006Z,17.90
2018-06-27T06:14:28.974Z,18.00
2018-06-27T06:15:02.039Z,18.00
2018-06-27T06:15:35.052Z,17.90
2018-06-27T06:16:08.046Z,18.00
2018-06-27T06:16:41.110Z,18.00
2018-06-27T06:17:14.156Z,18.10
2018-06-27T06:17:47.281Z,18.10
2018-06-27T06:18:20.357Z,18.10
2018-06-27T06:18:53.391Z,18.00
2018-06-27T06:19:26.423Z,18.10
2018-06-27T06:19:59.472Z,18.10
2018-06-27T06:20:32.864Z,18.10
2018-06-27T06:21:05.892Z,18.10
2018-06-27T06:21:38.927Z,18.10
2018-06-27T06:22:11.922Z,18.20
2018-06-27T06:22:44.992Z,18.20
2018-06-27T06:23:18.073Z,18.20
2018-06-27T06:23:51.724Z,18.20
2018-06-27T06:24:24.907Z,18.40
2018-06-27T06:24:59.113Z,18.30
2018-06-27T06:25:32.133Z,18.60
2018-06-27T06:26:05.599Z,18.60
2018-06-27T06:26:38.762Z,18.60
2018-06-27T06:27:13.001Z,18.60
2018-06-27T06:27:46.044Z,18.40
2018-06-27T06:28:19.111Z,18.40
2018-06-27T06:28:52.176Z,18.40
2018-06-27T06:29:26.175Z,18.40
2018-06-27T06:29:59.228Z,18.40
2018-06-27T06:30:32.244Z,18.60
2018-06-27T06:31:05.316Z,18.60
2018-06-27T06:31:38.350Z,18.80
2018-06-27T06:32:11.499Z,18.50
2018-06-27T06:32:44.468Z,18.60
2018-06-27T06:33:17.563Z,18.70
2018-06-27T06:33:51.161Z,18.80
2018-06-27T06:34:24.727Z,18.70
2018-06-27T06:34:57.822Z,18.70
2018-06-27T06:35:31.790Z,18.90
2018-06-27T06:36:05.337Z,18.50
2018-06-27T06:36:38.423Z,18.80
2018-06-27T06:37:11.852Z,18.60
2018-06-27T06:37:44.920Z,18.50
2018-06-27T06:38:17.997Z,18.50
2018-06-27T06:38:51.049Z,18.60
2018-06-27T06:39:24.051Z,18.40
2018-06-27T06:39:57.743Z,18.30
2018-06-27T06:40:30.833Z,18.30
2018-06-27T06:41:03.911Z,18.50
2018-06-27T06:41:37.259Z,18.60
2018-06-27T06:42:10.406Z,18.80
2018-06-27T06:42:43.446Z,18.80
2018-06-27T06:43:16.544Z,18.50
2018-06-27T06:43:49.604Z,18.20
2018-06-27T06:44:22.621Z,18.10
2018-06-27T06:44:56.755Z,18.30
2018-06-27T06:45:32.965Z,17.90
2018-06-27T06:46:06.157Z,18.00
2018-06-27T06:46:39.119Z,18.20
2018-06-27T06:47:12.207Z,18.40
2018-06-27T06:47:45.521Z,18.60
2018-06-27T06:48:18.537Z,18.70
2018-06-27T06:48:51.587Z,18.70
2018-06-27T06:49:24.643Z,19.00
2018-06-27T06:49:57.684Z,19.10
2018-06-27T06:50:30.736Z,19.00
2018-06-27T06:51:04.085Z,19.00
2018-06-27T06:51:37.337Z,19.00
2018-06-27T06:52:10.615Z,19.20
2018-06-27T06:52:43.631Z,19.20
2018-06-27T06:53:16.659Z,19.30
2018-06-27T06:53:49.663Z,19.30
2018-06-27T06:54:22.724Z,19.60
2018-06-27T06:54:55.759Z,19.90
2018-06-27T06:55:30.042Z,20.30
2018-06-27T06:56:03.665Z,21.00
2018-06-27T06:56:36.719Z,21.30
2018-06-27T06:57:09.765Z,21.60
2018-06-27T06:57:42.862Z,22.40
2018-06-27T06:58:15.940Z,23.20
2018-06-27T06:58:49.012Z,24.00
2018-06-27T06:59:22.329Z,24.10
2018-06-27T06:59:56.012Z,23.60
2018-06-27T07:00:29.103Z,21.70
2018-06-27T07:01:02.143Z,20.60
2018-06-27T07:01:35.184Z,21.00
2018-06-27T07:02:08.235Z,20.70
2018-06-27T07:02:41.243Z,20.70
2018-06-27T07:03:14.302Z,20.50
2018-06-27T07:03:47.334Z,20.70
2018-06-27T07:04:20.386Z,20.50
2018-06-27T07:04:54.431Z,20.80
2018-06-27T07:05:27.552Z,21.00
2018-06-27T07:06:00.583Z,21.20
2018-06-27T07:06:33.583Z,21.10
2018-06-27T07:07:06.616Z,21.20
2018-06-27T07:07:39.875Z,21.50
2018-06-27T07:08:12.955Z,21.80